sensor_id;sensor_type;location;lat;lon;timestamp;P1;durP1;ratioP1;P2;durP2;ratioP2
70866;SDS011;58487;53.474;49.470;2023-08-24T00:00:13;15.77;;;7.60;;
70866;SDS011;58487;53.474;49.470;2023-08-24T00:02:40;12.15;;;7.18;;
70866;SDS011;58487;53.474;49.470;2023-08-24T00:05:07;11.93;;;7.22;;
70866;SDS011;58487;53.474;49.470;2023-08-24T00:07:33;13.00;;;7.63;;
70866;SDS011;58487;53.474;49.470;2023-08-24T00:09:59;16.02;;;7.35;;
70866;SDS011;58487;53.474;49.470;2023-08-24T00:12:25;11.98;;;7.28;;
70866;SDS011;58487;53.474;49.470;2023-08-24T00:14:51;14.65;;;7.18;;
70866;SDS011;58487;53.474;49.470;2023-08-24T00:17:21;12.63;;;7.50;;
70866;SDS011;58487;53.474;49.470;2023-08-24T00:19:48;11.87;;;7.93;;
70866;SDS011;58487;53.474;49.470;2023-08-24T00:22:15;11.93;;;7.50;;
70866;SDS011;58487;53.474;49.470;2023-08-24T00:24:41;11.90;;;7.50;;
70866;SDS011;58487;53.474;49.470;2023-08-24T00:27:07;11.43;;;7.63;;
70866;SDS011;58487;53.474;49.470;2023-08-24T00:29:34;11.57;;;7.45;;
70866;SDS011;58487;53.474;49.470;2023-08-24T00:32:00;13.13;;;7.33;;
70866;SDS011;58487;53.474;49.470;2023-08-24T00:34:26;12.77;;;7.35;;
70866;SDS011;58487;53.474;49.470;2023-08-24T00:36:52;12.02;;;7.60;;
70866;SDS011;58487;53.474;49.470;2023-08-24T00:39:19;11.30;;;6.70;;
70866;SDS011;58487;53.474;49.470;2023-08-24T00:41:45;11.70;;;6.80;;
70866;SDS011;58487;53.474;49.470;2023-08-24T00:44:11;13.00;;;7.27;;
70866;SDS011;58487;53.474;49.470;2023-08-24T00:46:38;13.18;;;7.50;;
70866;SDS011;58487;53.474;49.470;2023-08-24T00:49:04;11.15;;;7.72;;
70866;SDS011;58487;53.474;49.470;2023-08-24T00:51:31;11.45;;;7.28;;
70866;SDS011;58487;53.474;49.470;2023-08-24T00:53:57;11.23;;;7.63;;
70866;SDS011;58487;53.474;49.470;2023-08-24T00:56:23;12.40;;;7.23;;
70866;SDS011;58487;53.474;49.470;2023-08-24T00:58:50;12.40;;;7.32;;
70866;SDS011;58487;53.474;49.470;2023-08-24T01:01:18;15.98;;;7.65;;
70866;SDS011;58487;53.474;49.470;2023-08-24T01:03:45;11.75;;;7.25;;
70866;SDS011;58487;53.474;49.470;2023-08-24T01:06:11;15.15;;;7.50;;
70866;SDS011;58487;53.474;49.470;2023-08-24T01:08:37;12.60;;;7.13;;
70866;SDS011;58487;53.474;49.470;2023-08-24T01:14:08;10.43;;;7.20;;
70866;SDS011;58487;53.474;49.470;2023-08-24T01:16:43;11.30;;;7.15;;
70866;SDS011;58487;53.474;49.470;2023-08-24T01:19:19;12.55;;;7.20;;
70866;SDS011;58487;53.474;49.470;2023-08-24T01:21:56;12.40;;;7.03;;
70866;SDS011;58487;53.474;49.470;2023-08-24T01:24:30;12.48;;;7.00;;
70866;SDS011;58487;53.474;49.470;2023-08-24T01:27:04;12.15;;;6.97;;
70866;SDS011;58487;53.474;49.470;2023-08-24T01:29:30;12.98;;;7.00;;
70866;SDS011;58487;53.474;49.470;2023-08-24T01:31:57;13.98;;;7.75;;
70866;SDS011;58487;53.474;49.470;2023-08-24T01:34:23;12.50;;;7.10;;
70866;SDS011;58487;53.474;49.470;2023-08-24T01:36:50;13.15;;;6.90;;
70866;SDS011;58487;53.474;49.470;2023-08-24T01:42:00;12.85;;;6.78;;
70866;SDS011;58487;53.474;49.470;2023-08-24T01:44:31;10.80;;;6.88;;
70866;SDS011;58487;53.474;49.470;2023-08-24T01:47:02;12.13;;;6.47;;
70866;SDS011;58487;53.474;49.470;2023-08-24T01:49:31;10.90;;;6.78;;
70866;SDS011;58487;53.474;49.470;2023-08-24T01:51:59;14.98;;;6.57;;
70866;SDS011;58487;53.474;49.470;2023-08-24T01:54:27;11.13;;;6.75;;
70866;SDS011;58487;53.474;49.470;2023-08-24T01:56:54;14.00;;;6.85;;
70866;SDS011;58487;53.474;49.470;2023-08-24T01:59:20;14.57;;;6.37;;
70866;SDS011;58487;53.474;49.470;2023-08-24T02:01:46;12.85;;;6.80;;
70866;SDS011;58487;53.474;49.470;2023-08-24T02:04:12;12.00;;;6.97;;
70866;SDS011;58487;53.474;49.470;2023-08-24T02:06:39;12.35;;;6.82;;
70866;SDS011;58487;53.474;49.470;2023-08-24T02:09:05;12.50;;;6.70;;
70866;SDS011;58487;53.474;49.470;2023-08-24T02:11:31;9.67;;;6.50;;
70866;SDS011;58487;53.474;49.470;2023-08-24T02:13:58;12.18;;;6.90;;
70866;SDS011;58487;53.474;49.470;2023-08-24T02:16:24;12.45;;;6.70;;
70866;SDS011;58487;53.474;49.470;2023-08-24T02:18:50;10.35;;;6.93;;
70866;SDS011;58487;53.474;49.470;2023-08-24T02:21:17;13.93;;;7.32;;
70866;SDS011;58487;53.474;49.470;2023-08-24T02:23:43;11.63;;;6.47;;
70866;SDS011;58487;53.474;49.470;2023-08-24T02:26:09;13.80;;;6.82;;
70866;SDS011;58487;53.474;49.470;2023-08-24T02:28:36;14.45;;;6.32;;
70866;SDS011;58487;53.474;49.470;2023-08-24T02:31:03;11.68;;;6.93;;
70866;SDS011;58487;53.474;49.470;2023-08-24T02:33:30;11.98;;;6.60;;
70866;SDS011;58487;53.474;49.470;2023-08-24T02:35:57;12.67;;;6.70;;
70866;SDS011;58487;53.474;49.470;2023-08-24T02:38:23;12.80;;;6.85;;
70866;SDS011;58487;53.474;49.470;2023-08-24T02:40:59;14.65;;;6.97;;
70866;SDS011;58487;53.474;49.470;2023-08-24T02:43:29;14.25;;;6.88;;
70866;SDS011;58487;53.474;49.470;2023-08-24T02:45:59;10.90;;;6.68;;
70866;SDS011;58487;53.474;49.470;2023-08-24T02:48:27;11.67;;;6.50;;
70866;SDS011;58487;53.474;49.470;2023-08-24T02:50:53;13.13;;;6.88;;
70866;SDS011;58487;53.474;49.470;2023-08-24T02:53:19;11.27;;;6.65;;
70866;SDS011;58487;53.474;49.470;2023-08-24T02:55:45;11.55;;;7.07;;
70866;SDS011;58487;53.474;49.470;2023-08-24T02:58:11;10.40;;;6.95;;
70866;SDS011;58487;53.474;49.470;2023-08-24T03:00:38;12.63;;;6.70;;
70866;SDS011;58487;53.474;49.470;2023-08-24T03:03:04;12.20;;;7.30;;
70866;SDS011;58487;53.474;49.470;2023-08-24T03:05:33;13.60;;;7.80;;
70866;SDS011;58487;53.474;49.470;2023-08-24T03:07:59;12.00;;;7.72;;
70866;SDS011;58487;53.474;49.470;2023-08-24T03:10:26;12.65;;;7.57;;
70866;SDS011;58487;53.474;49.470;2023-08-24T03:12:52;13.43;;;7.67;;
70866;SDS011;58487;53.474;49.470;2023-08-24T03:15:18;12.88;;;7.88;;
70866;SDS011;58487;53.474;49.470;2023-08-24T03:17:44;16.58;;;8.27;;
70866;SDS011;58487;53.474;49.470;2023-08-24T03:20:10;15.10;;;7.70;;
70866;SDS011;58487;53.474;49.470;2023-08-24T03:22:36;17.27;;;7.15;;
70866;SDS011;58487;53.474;49.470;2023-08-24T03:25:02;11.20;;;6.27;;
70866;SDS011;58487;53.474;49.470;2023-08-24T03:27:28;12.05;;;6.35;;
70866;SDS011;58487;53.474;49.470;2023-08-24T03:29:54;11.50;;;6.95;;
70866;SDS011;58487;53.474;49.470;2023-08-24T03:32:20;14.48;;;6.95;;
70866;SDS011;58487;53.474;49.470;2023-08-24T03:34:46;13.65;;;6.53;;
70866;SDS011;58487;53.474;49.470;2023-08-24T03:37:12;11.60;;;6.50;;
70866;SDS011;58487;53.474;49.470;2023-08-24T03:39:40;13.68;;;6.60;;
70866;SDS011;58487;53.474;49.470;2023-08-24T03:42:06;11.38;;;6.03;;
70866;SDS011;58487;53.474;49.470;2023-08-24T03:44:34;12.90;;;6.03;;
70866;SDS011;58487;53.474;49.470;2023-08-24T03:47:00;12.48;;;6.38;;
70866;SDS011;58487;53.474;49.470;2023-08-24T03:49:26;14.50;;;6.30;;
70866;SDS011;58487;53.474;49.470;2023-08-24T03:51:52;15.73;;;7.63;;
70866;SDS011;58487;53.474;49.470;2023-08-24T03:54:18;13.75;;;6.43;;
70866;SDS011;58487;53.474;49.470;2023-08-24T03:56:44;10.50;;;6.95;;
70866;SDS011;58487;53.474;49.470;2023-08-24T03:59:10;12.00;;;5.93;;
70866;SDS011;58487;53.474;49.470;2023-08-24T04:01:36;12.33;;;6.20;;
70866;SDS011;58487;53.474;49.470;2023-08-24T04:04:02;14.00;;;6.13;;
70866;SDS011;58487;53.474;49.470;2023-08-24T04:06:28;11.88;;;6.38;;
70866;SDS011;58487;53.474;49.470;2023-08-24T04:08:55;11.00;;;6.13;;
70866;SDS011;58487;53.474;49.470;2023-08-24T04:11:21;13.80;;;6.15;;
70866;SDS011;58487;53.474;49.470;2023-08-24T04:13:47;12.57;;;5.73;;
70866;SDS011;58487;53.474;49.470;2023-08-24T04:16:13;16.17;;;5.55;;
70866;SDS011;58487;53.474;49.470;2023-08-24T04:18:40;11.13;;;5.30;;
70866;SDS011;58487;53.474;49.470;2023-08-24T04:21:06;11.40;;;5.28;;
70866;SDS011;58487;53.474;49.470;2023-08-24T04:23:32;8.32;;;5.15;;
70866;SDS011;58487;53.474;49.470;2023-08-24T04:25:59;12.30;;;5.70;;
70866;SDS011;58487;53.474;49.470;2023-08-24T04:28:25;9.02;;;5.60;;
70866;SDS011;58487;53.474;49.470;2023-08-24T04:30:53;9.48;;;5.32;;
70866;SDS011;58487;53.474;49.470;2023-08-24T04:33:21;9.85;;;5.68;;
70866;SDS011;58487;53.474;49.470;2023-08-24T04:35:48;13.13;;;5.45;;
70866;SDS011;58487;53.474;49.470;2023-08-24T04:38:16;9.87;;;5.03;;
70866;SDS011;58487;53.474;49.470;2023-08-24T04:43:19;12.25;;;4.88;;
70866;SDS011;58487;53.474;49.470;2023-08-24T04:45:47;7.32;;;4.90;;
70866;SDS011;58487;53.474;49.470;2023-08-24T04:48:14;9.95;;;4.57;;
70866;SDS011;58487;53.474;49.470;2023-08-24T04:50:44;9.03;;;4.40;;
70866;SDS011;58487;53.474;49.470;2023-08-24T04:53:12;9.52;;;4.30;;
70866;SDS011;58487;53.474;49.470;2023-08-24T04:55:40;11.98;;;4.28;;
70866;SDS011;58487;53.474;49.470;2023-08-24T04:58:07;6.57;;;3.60;;
70866;SDS011;58487;53.474;49.470;2023-08-24T05:00:34;6.90;;;3.75;;
70866;SDS011;58487;53.474;49.470;2023-08-24T05:03:02;6.57;;;3.60;;
70866;SDS011;58487;53.474;49.470;2023-08-24T05:05:30;7.60;;;3.63;;
70866;SDS011;58487;53.474;49.470;2023-08-24T05:07:57;7.13;;;3.20;;
70866;SDS011;58487;53.474;49.470;2023-08-24T05:10:23;7.07;;;3.13;;
70866;SDS011;58487;53.474;49.470;2023-08-24T05:12:50;9.77;;;3.65;;
70866;SDS011;58487;53.474;49.470;2023-08-24T05:15:16;6.63;;;3.13;;
70866;SDS011;58487;53.474;49.470;2023-08-24T05:17:42;9.52;;;3.42;;
70866;SDS011;58487;53.474;49.470;2023-08-24T05:20:09;7.30;;;3.65;;
70866;SDS011;58487;53.474;49.470;2023-08-24T05:22:38;6.68;;;3.58;;
70866;SDS011;58487;53.474;49.470;2023-08-24T05:25:05;7.88;;;3.10;;
70866;SDS011;58487;53.474;49.470;2023-08-24T05:27:31;6.63;;;3.73;;
70866;SDS011;58487;53.474;49.470;2023-08-24T05:29:58;7.38;;;3.40;;
70866;SDS011;58487;53.474;49.470;2023-08-24T05:32:24;8.98;;;3.65;;
70866;SDS011;58487;53.474;49.470;2023-08-24T05:34:50;10.27;;;3.47;;
70866;SDS011;58487;53.474;49.470;2023-08-24T05:37:16;9.45;;;3.38;;
70866;SDS011;58487;53.474;49.470;2023-08-24T05:39:42;12.20;;;3.63;;
70866;SDS011;58487;53.474;49.470;2023-08-24T05:42:09;7.90;;;3.90;;
70866;SDS011;58487;53.474;49.470;2023-08-24T05:44:35;11.40;;;3.45;;
70866;SDS011;58487;53.474;49.470;2023-08-24T05:47:01;9.90;;;4.53;;
70866;SDS011;58487;53.474;49.470;2023-08-24T05:49:27;7.00;;;3.43;;
70866;SDS011;58487;53.474;49.470;2023-08-24T05:51:53;8.23;;;3.30;;
70866;SDS011;58487;53.474;49.470;2023-08-24T05:54:19;5.28;;;3.17;;
70866;SDS011;58487;53.474;49.470;2023-08-24T05:56:45;8.52;;;3.17;;
70866;SDS011;58487;53.474;49.470;2023-08-24T05:59:13;7.18;;;3.10;;
70866;SDS011;58487;53.474;49.470;2023-08-24T06:01:39;10.48;;;3.00;;
70866;SDS011;58487;53.474;49.470;2023-08-24T06:04:09;5.40;;;2.60;;
70866;SDS011;58487;53.474;49.470;2023-08-24T06:06:36;4.53;;;2.45;;
70866;SDS011;58487;53.474;49.470;2023-08-24T06:09:03;5.95;;;2.40;;
70866;SDS011;58487;53.474;49.470;2023-08-24T06:11:32;6.80;;;2.50;;
70866;SDS011;58487;53.474;49.470;2023-08-24T06:13:59;5.50;;;2.38;;
70866;SDS011;58487;53.474;49.470;2023-08-24T06:16:26;5.40;;;2.73;;
70866;SDS011;58487;53.474;49.470;2023-08-24T06:18:52;6.13;;;2.58;;
70866;SDS011;58487;53.474;49.470;2023-08-24T06:21:18;6.55;;;3.42;;
70866;SDS011;58487;53.474;49.470;2023-08-24T06:23:44;8.02;;;3.00;;
70866;SDS011;58487;53.474;49.470;2023-08-24T06:26:13;5.85;;;2.90;;
70866;SDS011;58487;53.474;49.470;2023-08-24T06:28:40;7.57;;;2.80;;
70866;SDS011;58487;53.474;49.470;2023-08-24T06:31:06;7.07;;;2.40;;
70866;SDS011;58487;53.474;49.470;2023-08-24T06:33:36;6.13;;;2.85;;
70866;SDS011;58487;53.474;49.470;2023-08-24T06:36:02;6.70;;;2.92;;
70866;SDS011;58487;53.474;49.470;2023-08-24T06:38:32;6.45;;;2.38;;
70866;SDS011;58487;53.474;49.470;2023-08-24T06:40:59;7.17;;;2.70;;
70866;SDS011;58487;53.474;49.470;2023-08-24T06:43:26;8.55;;;3.30;;
70866;SDS011;58487;53.474;49.470;2023-08-24T06:45:54;7.43;;;3.58;;
70866;SDS011;58487;53.474;49.470;2023-08-24T06:48:20;11.20;;;3.40;;
70866;SDS011;58487;53.474;49.470;2023-08-24T06:50:47;10.23;;;4.28;;
70866;SDS011;58487;53.474;49.470;2023-08-24T06:53:13;7.67;;;3.60;;
70866;SDS011;58487;53.474;49.470;2023-08-24T06:55:41;13.68;;;3.95;;
70866;SDS011;58487;53.474;49.470;2023-08-24T06:58:08;7.70;;;4.07;;
70866;SDS011;58487;53.474;49.470;2023-08-24T07:00:34;6.70;;;3.90;;
70866;SDS011;58487;53.474;49.470;2023-08-24T07:03:01;11.98;;;4.35;;
70866;SDS011;58487;53.474;49.470;2023-08-24T07:05:28;8.83;;;4.27;;
70866;SDS011;58487;53.474;49.470;2023-08-24T07:07:54;10.55;;;3.80;;
70866;SDS011;58487;53.474;49.470;2023-08-24T07:10:20;6.07;;;3.30;;
70866;SDS011;58487;53.474;49.470;2023-08-24T07:12:47;6.13;;;3.25;;
70866;SDS011;58487;53.474;49.470;2023-08-24T07:15:13;7.97;;;3.35;;
70866;SDS011;58487;53.474;49.470;2023-08-24T07:17:39;8.20;;;3.90;;
70866;SDS011;58487;53.474;49.470;2023-08-24T07:20:09;7.80;;;3.58;;
70866;SDS011;58487;53.474;49.470;2023-08-24T07:22:37;8.50;;;3.80;;
70866;SDS011;58487;53.474;49.470;2023-08-24T07:25:04;6.22;;;3.10;;
70866;SDS011;58487;53.474;49.470;2023-08-24T07:27:34;6.13;;;3.17;;
70866;SDS011;58487;53.474;49.470;2023-08-24T07:30:01;7.93;;;3.53;;
70866;SDS011;58487;53.474;49.470;2023-08-24T07:32:31;7.13;;;3.47;;
70866;SDS011;58487;53.474;49.470;2023-08-24T07:34:58;7.18;;;3.70;;
70866;SDS011;58487;53.474;49.470;2023-08-24T07:37:28;7.25;;;3.45;;
70866;SDS011;58487;53.474;49.470;2023-08-24T07:39:54;6.78;;;3.22;;
70866;SDS011;58487;53.474;49.470;2023-08-24T07:42:21;5.97;;;2.97;;
70866;SDS011;58487;53.474;49.470;2023-08-24T07:44:47;7.90;;;3.47;;
70866;SDS011;58487;53.474;49.470;2023-08-24T07:47:14;9.40;;;3.50;;
70866;SDS011;58487;53.474;49.470;2023-08-24T07:49:40;7.25;;;3.13;;
70866;SDS011;58487;53.474;49.470;2023-08-24T07:52:11;9.63;;;3.28;;
70866;SDS011;58487;53.474;49.470;2023-08-24T07:55:02;7.37;;;3.70;;
70866;SDS011;58487;53.474;49.470;2023-08-24T07:57:30;9.38;;;4.60;;
70866;SDS011;58487;53.474;49.470;2023-08-24T07:59:57;8.63;;;4.18;;
70866;SDS011;58487;53.474;49.470;2023-08-24T08:02:23;7.85;;;4.40;;
70866;SDS011;58487;53.474;49.470;2023-08-24T08:04:49;10.02;;;4.50;;
70866;SDS011;58487;53.474;49.470;2023-08-24T08:07:15;7.97;;;3.97;;
70866;SDS011;58487;53.474;49.470;2023-08-24T08:09:42;8.05;;;3.75;;
70866;SDS011;58487;53.474;49.470;2023-08-24T08:12:08;7.35;;;3.60;;
70866;SDS011;58487;53.474;49.470;2023-08-24T08:14:34;8.40;;;3.85;;
70866;SDS011;58487;53.474;49.470;2023-08-24T08:17:00;6.60;;;3.80;;
70866;SDS011;58487;53.474;49.470;2023-08-24T08:19:26;9.47;;;3.90;;
70866;SDS011;58487;53.474;49.470;2023-08-24T08:21:53;6.93;;;3.20;;
70866;SDS011;58487;53.474;49.470;2023-08-24T08:24:19;7.07;;;3.42;;
70866;SDS011;58487;53.474;49.470;2023-08-24T08:26:45;9.02;;;3.08;;
70866;SDS011;58487;53.474;49.470;2023-08-24T08:29:11;5.43;;;2.80;;
70866;SDS011;58487;53.474;49.470;2023-08-24T08:31:37;7.93;;;3.60;;
70866;SDS011;58487;53.474;49.470;2023-08-24T08:34:03;6.10;;;3.13;;
70866;SDS011;58487;53.474;49.470;2023-08-24T08:36:30;8.13;;;2.65;;
70866;SDS011;58487;53.474;49.470;2023-08-24T08:38:59;6.38;;;2.78;;
70866;SDS011;58487;53.474;49.470;2023-08-24T08:41:26;9.65;;;3.25;;
70866;SDS011;58487;53.474;49.470;2023-08-24T08:43:56;5.37;;;2.60;;
70866;SDS011;58487;53.474;49.470;2023-08-24T08:46:22;6.15;;;2.45;;
70866;SDS011;58487;53.474;49.470;2023-08-24T08:48:48;6.13;;;2.78;;
70866;SDS011;58487;53.474;49.470;2023-08-24T08:51:17;6.82;;;3.00;;
70866;SDS011;58487;53.474;49.470;2023-08-24T08:53:44;7.90;;;2.88;;
70866;SDS011;58487;53.474;49.470;2023-08-24T08:56:10;4.90;;;2.60;;
70866;SDS011;58487;53.474;49.470;2023-08-24T08:58:36;5.82;;;2.80;;
70866;SDS011;58487;53.474;49.470;2023-08-24T09:01:03;5.30;;;2.60;;
70866;SDS011;58487;53.474;49.470;2023-08-24T09:03:31;5.70;;;2.60;;
70866;SDS011;58487;53.474;49.470;2023-08-24T09:05:58;6.68;;;2.83;;
70866;SDS011;58487;53.474;49.470;2023-08-24T09:08:25;5.13;;;2.77;;
70866;SDS011;58487;53.474;49.470;2023-08-24T09:10:52;6.45;;;2.83;;
70866;SDS011;58487;53.474;49.470;2023-08-24T09:13:18;5.30;;;2.97;;
70866;SDS011;58487;53.474;49.470;2023-08-24T09:15:45;6.07;;;2.75;;
70866;SDS011;58487;53.474;49.470;2023-08-24T09:18:11;6.47;;;3.08;;
70866;SDS011;58487;53.474;49.470;2023-08-24T09:20:37;5.80;;;2.70;;
70866;SDS011;58487;53.474;49.470;2023-08-24T09:23:03;5.45;;;2.90;;
70866;SDS011;58487;53.474;49.470;2023-08-24T09:25:30;5.43;;;2.78;;
70866;SDS011;58487;53.474;49.470;2023-08-24T09:27:57;5.20;;;2.78;;
70866;SDS011;58487;53.474;49.470;2023-08-24T09:30:25;4.85;;;2.60;;
70866;SDS011;58487;53.474;49.470;2023-08-24T09:32:55;7.37;;;2.70;;
70866;SDS011;58487;53.474;49.470;2023-08-24T09:35:21;5.30;;;2.63;;
70866;SDS011;58487;53.474;49.470;2023-08-24T09:37:49;12.02;;;2.50;;
70866;SDS011;58487;53.474;49.470;2023-08-24T09:40:15;4.80;;;2.33;;
70866;SDS011;58487;53.474;49.470;2023-08-24T09:42:49;4.50;;;2.30;;
70866;SDS011;58487;53.474;49.470;2023-08-24T09:45:15;5.00;;;2.30;;
70866;SDS011;58487;53.474;49.470;2023-08-24T09:47:46;4.57;;;2.38;;
70866;SDS011;58487;53.474;49.470;2023-08-24T09:50:15;4.75;;;2.25;;
70866;SDS011;58487;53.474;49.470;2023-08-24T09:52:41;5.03;;;2.00;;
70866;SDS011;58487;53.474;49.470;2023-08-24T09:55:11;5.43;;;2.30;;
70866;SDS011;58487;53.474;49.470;2023-08-24T09:57:38;4.17;;;2.00;;
70866;SDS011;58487;53.474;49.470;2023-08-24T10:00:06;4.63;;;2.00;;
70866;SDS011;58487;53.474;49.470;2023-08-24T10:02:38;6.35;;;2.38;;
70866;SDS011;58487;53.474;49.470;2023-08-24T10:05:19;4.95;;;2.20;;
70866;SDS011;58487;53.474;49.470;2023-08-24T10:07:52;4.60;;;2.05;;
70866;SDS011;58487;53.474;49.470;2023-08-24T10:10:23;6.93;;;2.30;;
70866;SDS011;58487;53.474;49.470;2023-08-24T10:12:56;5.82;;;2.13;;
70866;SDS011;58487;53.474;49.470;2023-08-24T10:15:26;5.43;;;1.90;;
70866;SDS011;58487;53.474;49.470;2023-08-24T10:17:53;5.13;;;2.40;;
70866;SDS011;58487;53.474;49.470;2023-08-24T10:20:22;4.03;;;1.90;;
70866;SDS011;58487;53.474;49.470;2023-08-24T10:22:55;4.77;;;2.00;;
70866;SDS011;58487;53.474;49.470;2023-08-24T10:25:26;4.75;;;1.80;;
70866;SDS011;58487;53.474;49.470;2023-08-24T10:27:52;5.63;;;2.17;;
70866;SDS011;58487;53.474;49.470;2023-08-24T10:30:19;5.35;;;2.20;;
70866;SDS011;58487;53.474;49.470;2023-08-24T10:32:47;6.00;;;2.20;;
70866;SDS011;58487;53.474;49.470;2023-08-24T10:35:15;5.23;;;1.77;;
70866;SDS011;58487;53.474;49.470;2023-08-24T10:37:46;5.68;;;2.20;;
70866;SDS011;58487;53.474;49.470;2023-08-24T10:40:13;5.18;;;2.33;;
70866;SDS011;58487;53.474;49.470;2023-08-24T10:42:43;4.70;;;2.10;;
70866;SDS011;58487;53.474;49.470;2023-08-24T10:45:14;5.07;;;2.30;;
70866;SDS011;58487;53.474;49.470;2023-08-24T10:47:44;6.43;;;2.57;;
70866;SDS011;58487;53.474;49.470;2023-08-24T10:50:14;4.93;;;2.20;;
70866;SDS011;58487;53.474;49.470;2023-08-24T10:52:42;5.60;;;2.20;;
70866;SDS011;58487;53.474;49.470;2023-08-24T10:55:23;7.22;;;2.60;;
70866;SDS011;58487;53.474;49.470;2023-08-24T10:57:58;4.93;;;2.10;;
70866;SDS011;58487;53.474;49.470;2023-08-24T11:00:28;10.47;;;2.60;;
70866;SDS011;58487;53.474;49.470;2023-08-24T11:02:56;6.57;;;2.85;;
70866;SDS011;58487;53.474;49.470;2023-08-24T11:10:24;6.78;;;2.30;;
70866;SDS011;58487;53.474;49.470;2023-08-24T11:15:33;7.22;;;2.35;;
70866;SDS011;58487;53.474;49.470;2023-08-24T11:18:25;5.50;;;2.00;;
70866;SDS011;58487;53.474;49.470;2023-08-24T11:21:04;5.13;;;2.08;;
70866;SDS011;58487;53.474;49.470;2023-08-24T11:23:32;5.97;;;1.90;;
70866;SDS011;58487;53.474;49.470;2023-08-24T11:25:59;7.47;;;2.17;;
70866;SDS011;58487;53.474;49.470;2023-08-24T11:28:29;5.15;;;2.33;;
70866;SDS011;58487;53.474;49.470;2023-08-24T11:30:56;7.93;;;2.10;;
70866;SDS011;58487;53.474;49.470;2023-08-24T11:33:31;6.50;;;2.40;;
70866;SDS011;58487;53.474;49.470;2023-08-24T11:35:59;6.57;;;2.45;;
70866;SDS011;58487;53.474;49.470;2023-08-24T11:38:36;5.70;;;2.30;;
70866;SDS011;58487;53.474;49.470;2023-08-24T11:41:12;7.18;;;2.63;;
70866;SDS011;58487;53.474;49.470;2023-08-24T11:43:42;5.47;;;2.67;;
70866;SDS011;58487;53.474;49.470;2023-08-24T11:46:09;5.40;;;2.47;;
70866;SDS011;58487;53.474;49.470;2023-08-24T11:48:35;8.25;;;2.50;;
70866;SDS011;58487;53.474;49.470;2023-08-24T11:51:08;5.00;;;2.57;;
70866;SDS011;58487;53.474;49.470;2023-08-24T11:53:41;4.95;;;2.30;;
70866;SDS011;58487;53.474;49.470;2023-08-24T11:56:11;5.10;;;2.20;;
70866;SDS011;58487;53.474;49.470;2023-08-24T11:58:38;5.15;;;2.35;;
70866;SDS011;58487;53.474;49.470;2023-08-24T12:01:06;5.25;;;2.30;;
70866;SDS011;58487;53.474;49.470;2023-08-24T12:03:33;6.03;;;2.10;;
70866;SDS011;58487;53.474;49.470;2023-08-24T12:06:01;5.53;;;2.63;;
70866;SDS011;58487;53.474;49.470;2023-08-24T12:08:45;4.85;;;2.40;;
70866;SDS011;58487;53.474;49.470;2023-08-24T12:11:13;4.70;;;1.90;;
70866;SDS011;58487;53.474;49.470;2023-08-24T12:13:44;4.03;;;1.90;;
70866;SDS011;58487;53.474;49.470;2023-08-24T12:16:18;5.00;;;2.17;;
70866;SDS011;58487;53.474;49.470;2023-08-24T12:18:46;5.70;;;2.10;;
70866;SDS011;58487;53.474;49.470;2023-08-24T12:21:25;4.95;;;2.25;;
70866;SDS011;58487;53.474;49.470;2023-08-24T12:23:58;4.22;;;2.08;;
70866;SDS011;58487;53.474;49.470;2023-08-24T12:26:26;5.10;;;2.10;;
70866;SDS011;58487;53.474;49.470;2023-08-24T12:28:54;5.97;;;2.00;;
70866;SDS011;58487;53.474;49.470;2023-08-24T12:31:28;4.47;;;2.17;;
70866;SDS011;58487;53.474;49.470;2023-08-24T12:34:02;4.43;;;1.90;;
70866;SDS011;58487;53.474;49.470;2023-08-24T12:36:35;5.35;;;2.20;;
70866;SDS011;58487;53.474;49.470;2023-08-24T12:39:04;5.25;;;2.22;;
70866;SDS011;58487;53.474;49.470;2023-08-24T12:41:31;4.70;;;2.20;;
70866;SDS011;58487;53.474;49.470;2023-08-24T12:44:01;7.88;;;2.00;;
70866;SDS011;58487;53.474;49.470;2023-08-24T12:46:31;4.68;;;1.90;;
70866;SDS011;58487;53.474;49.470;2023-08-24T12:48:58;5.07;;;2.00;;
70866;SDS011;58487;53.474;49.470;2023-08-24T12:51:24;4.65;;;2.08;;
70866;SDS011;58487;53.474;49.470;2023-08-24T12:53:51;5.83;;;2.10;;
70866;SDS011;58487;53.474;49.470;2023-08-24T12:56:17;4.20;;;2.00;;
70866;SDS011;58487;53.474;49.470;2023-08-24T12:58:43;6.05;;;2.00;;
70866;SDS011;58487;53.474;49.470;2023-08-24T13:01:10;4.20;;;2.10;;
70866;SDS011;58487;53.474;49.470;2023-08-24T13:03:37;8.05;;;2.08;;
70866;SDS011;58487;53.474;49.470;2023-08-24T13:06:05;4.30;;;2.17;;
70866;SDS011;58487;53.474;49.470;2023-08-24T13:08:32;4.50;;;2.03;;
70866;SDS011;58487;53.474;49.470;2023-08-24T13:10:58;5.45;;;1.95;;
70866;SDS011;58487;53.474;49.470;2023-08-24T13:13:24;4.80;;;1.70;;
70866;SDS011;58487;53.474;49.470;2023-08-24T13:15:50;5.93;;;2.20;;
70866;SDS011;58487;53.474;49.470;2023-08-24T13:18:17;5.30;;;2.10;;
70866;SDS011;58487;53.474;49.470;2023-08-24T13:20:43;5.47;;;2.10;;
70866;SDS011;58487;53.474;49.470;2023-08-24T13:23:09;5.25;;;2.10;;
70866;SDS011;58487;53.474;49.470;2023-08-24T13:25:35;5.22;;;2.30;;
70866;SDS011;58487;53.474;49.470;2023-08-24T13:28:01;4.93;;;2.20;;
70866;SDS011;58487;53.474;49.470;2023-08-24T13:30:27;5.50;;;2.20;;
70866;SDS011;58487;53.474;49.470;2023-08-24T13:32:54;4.63;;;2.10;;
70866;SDS011;58487;53.474;49.470;2023-08-24T13:35:20;6.50;;;2.20;;
70866;SDS011;58487;53.474;49.470;2023-08-24T13:37:46;8.00;;;2.20;;
70866;SDS011;58487;53.474;49.470;2023-08-24T13:40:13;4.50;;;2.00;;
70866;SDS011;58487;53.474;49.470;2023-08-24T13:42:39;4.50;;;2.07;;
70866;SDS011;58487;53.474;49.470;2023-08-24T13:45:05;7.60;;;2.28;;
70866;SDS011;58487;53.474;49.470;2023-08-24T13:47:31;5.35;;;2.10;;
70866;SDS011;58487;53.474;49.470;2023-08-24T13:49:58;4.50;;;2.38;;
70866;SDS011;58487;53.474;49.470;2023-08-24T13:52:27;4.82;;;2.38;;
70866;SDS011;58487;53.474;49.470;2023-08-24T13:54:57;5.03;;;2.20;;
70866;SDS011;58487;53.474;49.470;2023-08-24T13:57:25;5.53;;;2.63;;
70866;SDS011;58487;53.474;49.470;2023-08-24T13:59:54;6.15;;;2.60;;
70866;SDS011;58487;53.474;49.470;2023-08-24T14:02:23;7.30;;;2.67;;
70866;SDS011;58487;53.474;49.470;2023-08-24T14:04:49;4.93;;;2.70;;
70866;SDS011;58487;53.474;49.470;2023-08-24T14:07:17;5.20;;;2.70;;
70866;SDS011;58487;53.474;49.470;2023-08-24T14:09:43;7.35;;;2.70;;
70866;SDS011;58487;53.474;49.470;2023-08-24T14:12:10;7.28;;;2.70;;
70866;SDS011;58487;53.474;49.470;2023-08-24T14:14:36;6.35;;;3.10;;
70866;SDS011;58487;53.474;49.470;2023-08-24T14:17:03;7.18;;;2.92;;
70866;SDS011;58487;53.474;49.470;2023-08-24T14:19:29;7.93;;;3.00;;
70866;SDS011;58487;53.474;49.470;2023-08-24T14:21:55;7.32;;;2.90;;
70866;SDS011;58487;53.474;49.470;2023-08-24T14:24:23;5.38;;;2.80;;
70866;SDS011;58487;53.474;49.470;2023-08-24T14:26:50;5.28;;;3.00;;
70866;SDS011;58487;53.474;49.470;2023-08-24T14:29:16;6.55;;;2.80;;
70866;SDS011;58487;53.474;49.470;2023-08-24T14:31:42;5.37;;;2.70;;
70866;SDS011;58487;53.474;49.470;2023-08-24T14:34:09;6.90;;;3.20;;
70866;SDS011;58487;53.474;49.470;2023-08-24T14:36:35;6.18;;;3.00;;
70866;SDS011;58487;53.474;49.470;2023-08-24T14:39:01;6.55;;;2.90;;
70866;SDS011;58487;53.474;49.470;2023-08-24T14:41:28;7.22;;;2.97;;
70866;SDS011;58487;53.474;49.470;2023-08-24T14:43:54;9.87;;;3.20;;
70866;SDS011;58487;53.474;49.470;2023-08-24T14:46:20;5.72;;;2.95;;
70866;SDS011;58487;53.474;49.470;2023-08-24T14:48:47;5.70;;;2.80;;